Flight Track Log - Related Links

Times and Time Zones

All times are in EDT time to prevent confusion due to time zone crossing. See the AWE9325 flight status page for this flight to view local times or setup timezone preferences in your user account.

Time Position Orientation Groundspeed Altitude Reporting Facility
EDT Latitude Longitude Course Direction KTS MPH feet Rate Location/Type
Thu 20:01:00 33.9229 -118.0507 94° East  Level Estimated
Thu 20:02:00 33.9162 -117.9316 94° East  Level Estimated
Thu 20:03:00 33.9093 -117.8125 94° East  Level Estimated
Thu 20:04:00 33.9024 -117.6934 94° East  Level Estimated
Thu 20:05:00 33.8953 -117.5744 94° East  Level Estimated
Thu 20:06:00 33.8881 -117.4554 94° East  Level Estimated
Thu 20:07:00 33.8807 -117.3364 94° East  Level Estimated
Thu 20:08:00 33.8733 -117.2174 94° East  Level Estimated
Thu 20:09:00 33.8657 -117.0984 94° East  Level Estimated
Thu 20:10:00 33.8581 -116.9795 94° East  Level Estimated
Thu 20:11:00 33.8503 -116.8606 94° East  Level Estimated
Thu 20:12:00 33.8424 -116.7417 95° East  Level Estimated
Thu 20:13:00 33.8344 -116.6228 95° East  Level Estimated
Thu 20:14:00 33.8263 -116.5039 95° East  Level Estimated
Thu 20:15:00 33.8181 -116.3851 95° East  Level Estimated
Thu 20:16:00 33.8097 -116.2663 95° East  Level Estimated
Thu 20:17:00 33.8012 -116.1475 95° East  Level Estimated
Thu 20:18:00 33.7927 -116.0288 95° East  Level Estimated
Thu 20:19:00 33.7840 -115.9100 95° East  Level Estimated
Thu 20:20:00 33.7752 -115.7913 95° East  Level Estimated
Thu 20:21:00 33.7663 -115.6726 95° East  Level Estimated
Thu 20:22:00 33.7572 -115.5540 95° East  Level Estimated
Thu 20:23:00 33.7481 -115.4353 95° East  Level Estimated
Thu 20:24:00 33.7388 -115.3167 95° East  Level Estimated
Thu 20:25:00 33.7295 -115.1981 95° East  Level Estimated
Thu 20:26:00 33.7200 -115.0796 95° East  Level Estimated
Thu 20:27:00 33.7104 -114.9611 96° East  Level Estimated
Thu 20:28:00 33.7006 -114.8425 96° East  Level Estimated
Thu 20:29:00 33.6908 -114.7241 96° East  Level Estimated
Thu 20:30:00 33.6809 -114.6056 96° East  Level Estimated
Thu 20:31:00 33.6708 -114.4872 96° East  Level Estimated
Thu 20:32:00 33.6607 -114.3688 96° East  Level Estimated
Thu 20:33:00 33.6504 -114.2504 96° East  Level Estimated
Thu 20:34:00 33.6400 -114.1321 96° East  Level Estimated
Thu 20:35:00 33.6295 -114.0138 96° East  Level Estimated
Thu 20:36:00 33.6189 -113.8955 96° East  Level Estimated
Thu 20:37:00 33.6082 -113.7772 96° East  Level Estimated
Thu 20:38:00 33.5973 -113.6590 96° East  Level Estimated
Thu 20:39:00 33.5864 -113.5408 96° East  Level Estimated
Thu 20:40:00 33.5753 -113.4227 96° East  Level Estimated
Thu 20:41:00 33.5641 -113.3045 96° East  Level Estimated
Thu 20:42:00 33.5528 -113.1864 97° East  Level Estimated
Thu 20:43:00 33.5415 -113.0684 97° East  Level Estimated
Thu 20:44:00 33.5299 -112.9503 97° East  Level Estimated
Thu 20:45:00 33.5183 -112.8323 97° East  Level Estimated
Thu 20:46:00 33.5066 -112.7143 97° East  Level Estimated
Thu 20:47:00 33.4947 -112.5964 97° East  Level Estimated
Thu 20:48:00 33.4828 -112.4785 97° East  Level Estimated
Thu 20:49:00 33.4707 -112.3606 97° East  Level Estimated
Thu 20:50:00 33.4585 -112.2428 97° East  Level Estimated
Thu 20:51:00 33.4462 -112.1249 97° East  Level Estimated
Thu 20:52:00 33.4343 -112.0116 97° East  Level Estimated
Thu 20:53:00 33.4343 -112.0116 231° Southwest  Level Estimated
Thu 20:54:00 33.4343 -112.0116 231° Southwest  Level Estimated
Thu 20:55:00 33.4343 -112.0116 231° Southwest  Level Estimated
Thu 20:56:00 33.4343 -112.0116 231° Southwest  Level Estimated
Thu 20:57:00 33.4343 -112.0116 231° Southwest  Level Estimated
Thu 20:58:00 33.4343 -112.0116 231° Southwest  Level Estimated
Thu 20:59:00 33.4343 -112.0116 231° Southwest  Level Estimated

Login

Don't have an account? Register now (free) for customized features, flight alerts, and more!